createdAt,value
2023-04-27T00:00:58.949Z,22.05
2023-04-27T00:03:31.130Z,23.23
2023-04-27T00:06:02.797Z,23.02
2023-04-27T00:08:34.093Z,22.49
2023-04-27T00:11:04.966Z,22.64
2023-04-27T00:13:36.320Z,22.39
2023-04-27T00:16:10.313Z,22.75
2023-04-27T00:18:42.089Z,22.33
2023-04-27T00:21:13.720Z,21.76
2023-04-27T00:23:45.128Z,22.24
2023-04-27T00:26:16.339Z,22.85
2023-04-27T00:28:51.788Z,22.20
2023-04-27T00:31:23.095Z,22.81
2023-04-27T00:33:53.910Z,22.63
2023-04-27T00:36:25.177Z,23.45
2023-04-27T00:38:56.284Z,22.71
2023-04-27T00:41:28.298Z,23.38
2023-04-27T00:43:59.690Z,22.53
2023-04-27T00:46:32.217Z,22.00
2023-04-27T00:49:04.410Z,21.58
2023-04-27T00:51:37.478Z,21.81
2023-04-27T00:54:08.659Z,22.17
2023-04-27T00:56:40.130Z,20.66
2023-04-27T00:59:11.615Z,21.37
2023-04-27T01:01:43.302Z,22.35
2023-04-27T01:04:16.619Z,23.16
2023-04-27T01:06:48.367Z,24.73
2023-04-27T01:09:21.513Z,25.62
2023-04-27T01:11:53.931Z,25.01
2023-04-27T01:14:26.516Z,24.75
2023-04-27T01:16:57.869Z,23.71
2023-04-27T01:19:30.310Z,22.55
2023-04-27T01:22:02.315Z,22.32
2023-04-27T01:24:33.501Z,23.25
2023-04-27T01:27:06.587Z,21.67
2023-04-27T01:29:37.880Z,23.58
2023-04-27T01:32:09.926Z,24.84
2023-04-27T01:34:41.675Z,22.73
2023-04-27T01:37:12.993Z,23.05
2023-04-27T01:39:44.721Z,24.52
2023-04-27T01:42:16.135Z,24.65
2023-04-27T01:44:47.447Z,23.27
2023-04-27T01:47:19.477Z,25.53
2023-04-27T01:49:51.297Z,24.29
2023-04-27T01:52:23.137Z,25.20
2023-04-27T01:54:54.387Z,25.94
2023-04-27T01:57:27.089Z,24.62
2023-04-27T01:59:59.413Z,25.67
2023-04-27T02:02:30.817Z,25.05
2023-04-27T02:05:01.614Z,24.91
2023-04-27T02:07:33.638Z,24.14
2023-04-27T02:10:05.226Z,23.95
2023-04-27T02:12:36.733Z,24.20
2023-04-27T02:15:09.123Z,23.66
2023-04-27T02:17:41.585Z,23.10
2023-04-27T02:20:13.892Z,23.87
2023-04-27T02:22:46.409Z,24.91
2023-04-27T02:25:17.861Z,24.86
2023-04-27T02:27:50.901Z,25.00
2023-04-27T02:30:23.451Z,25.41
2023-04-27T02:32:55.463Z,24.36
2023-04-27T02:35:28.365Z,24.78
2023-04-27T02:38:02.617Z,23.62
2023-04-27T02:40:33.665Z,24.49
2023-04-27T02:43:05.681Z,24.48
2023-04-27T02:45:39.844Z,25.44
2023-04-27T02:48:11.343Z,23.28
2023-04-27T02:50:46.650Z,23.64
2023-04-27T02:53:18.034Z,24.67
2023-04-27T02:55:52.712Z,24.55
2023-04-27T02:58:24.178Z,24.16
2023-04-27T03:00:58.391Z,23.44
2023-04-27T03:03:29.767Z,24.17
2023-04-27T03:06:01.072Z,24.56
2023-04-27T03:08:33.285Z,24.32
2023-04-27T03:11:05.584Z,23.78
2023-04-27T03:13:43.213Z,23.69
2023-04-27T03:16:14.755Z,23.60
2023-04-27T03:18:46.966Z,23.56
2023-04-27T03:21:19.303Z,24.20
2023-04-27T03:23:53.662Z,22.98
2023-04-27T03:26:27.871Z,23.89
2023-04-27T03:28:59.129Z,23.49
2023-04-27T03:31:32.423Z,22.07
2023-04-27T03:34:03.587Z,21.96
2023-04-27T03:36:34.354Z,21.42
2023-04-27T03:39:05.573Z,22.44
2023-04-27T03:41:38.336Z,23.22
2023-04-27T03:44:09.614Z,22.93
2023-04-27T03:46:41.087Z,22.70
2023-04-27T03:49:12.515Z,22.61
2023-04-27T03:51:44.469Z,21.99
2023-04-27T03:54:16.465Z,22.63
2023-04-27T03:56:47.163Z,22.51
2023-04-27T03:59:18.402Z,22.58
2023-04-27T04:01:53.198Z,22.48
2023-04-27T04:04:24.318Z,21.29
2023-04-27T04:07:07.775Z,21.13
2023-04-27T04:09:39.553Z,21.45
2023-04-27T04:12:10.947Z,21.79
2023-04-27T04:14:44.296Z,22.01
2023-04-27T04:17:16.974Z,21.77
2023-04-27T04:19:50.653Z,21.79
2023-04-27T04:22:21.554Z,21.81
2023-04-27T04:24:54.090Z,21.53
2023-04-27T04:27:25.658Z,21.68
2023-04-27T04:29:57.316Z,20.75
2023-04-27T04:32:32.716Z,21.06
2023-04-27T04:35:05.292Z,20.70
2023-04-27T04:37:37.880Z,20.56
2023-04-27T04:40:10.512Z,20.46
2023-04-27T04:42:42.871Z,19.47
2023-04-27T04:45:14.512Z,19.68
2023-04-27T04:47:45.024Z,19.67
2023-04-27T04:50:16.563Z,19.81
2023-04-27T04:52:48.239Z,19.75
2023-04-27T04:55:19.846Z,19.51
2023-04-27T04:57:51.363Z,19.09
2023-04-27T05:00:22.895Z,18.99
2023-04-27T05:02:54.934Z,19.09
2023-04-27T05:05:26.546Z,19.00
2023-04-27T05:07:58.242Z,18.99
2023-04-27T05:10:29.390Z,18.68
2023-04-27T05:13:00.531Z,18.63
2023-04-27T05:15:32.132Z,18.78
2023-04-27T05:18:03.322Z,18.53
2023-04-27T05:20:37.558Z,18.56
2023-04-27T05:23:08.859Z,18.57
2023-04-27T05:25:43.328Z,18.19
2023-04-27T05:28:15.004Z,18.32
2023-04-27T05:30:46.367Z,18.16
2023-04-27T05:33:17.746Z,17.98
2023-04-27T05:35:49.242Z,17.83
2023-04-27T05:38:20.490Z,17.75
2023-04-27T05:40:58.227Z,17.73
2023-04-27T05:43:29.700Z,17.64
2023-04-27T05:46:00.798Z,17.77
2023-04-27T05:48:32.262Z,17.55
2023-04-27T05:51:03.418Z,17.48
2023-04-27T05:53:37.244Z,17.23
2023-04-27T05:56:08.985Z,17.12
2023-04-27T05:58:40.161Z,17.24
2023-04-27T06:01:12.042Z,17.24
2023-04-27T06:03:43.406Z,17.17
2023-04-27T06:06:14.838Z,17.20
2023-04-27T06:08:45.844Z,17.12
2023-04-27T06:11:17.963Z,16.84
2023-04-27T06:13:49.437Z,16.88
2023-04-27T06:16:23.637Z,16.83
2023-04-27T06:18:54.890Z,16.70
2023-04-27T06:21:26.225Z,16.58
2023-04-27T06:23:57.274Z,16.68
2023-04-27T06:26:29.976Z,16.61
2023-04-27T06:29:01.364Z,16.21
2023-04-27T06:31:33.248Z,16.07
2023-04-27T06:34:05.393Z,16.17
2023-04-27T06:36:36.494Z,16.22
2023-04-27T06:39:08.136Z,16.22
2023-04-27T06:41:39.561Z,16.08
2023-04-27T06:44:22.695Z,16.00
2023-04-27T06:46:53.854Z,15.80
2023-04-27T06:49:25.249Z,15.66
2023-04-27T06:51:56.478Z,15.68
2023-04-27T06:54:27.997Z,15.56
2023-04-27T06:56:59.660Z,15.33
2023-04-27T06:59:31.014Z,15.17
2023-04-27T07:02:02.976Z,15.07
2023-04-27T07:04:34.730Z,15.00
2023-04-27T07:07:06.644Z,15.08
2023-04-27T07:09:39.103Z,15.07
2023-04-27T07:12:10.440Z,14.93
2023-04-27T07:14:41.725Z,14.99
2023-04-27T07:17:12.919Z,14.85
2023-04-27T07:19:45.266Z,14.84
2023-04-27T07:22:17.502Z,14.60
2023-04-27T07:24:50.006Z,14.70
2023-04-27T07:27:22.022Z,14.56
2023-04-27T07:29:53.204Z,14.50
2023-04-27T07:32:24.997Z,14.46
2023-04-27T07:34:58.429Z,14.71
2023-04-27T07:37:30.335Z,14.53
2023-04-27T07:40:03.761Z,14.44
2023-04-27T07:42:35.518Z,14.07
2023-04-27T07:45:07.343Z,14.07
2023-04-27T07:47:39.270Z,14.07
2023-04-27T07:50:11.031Z,13.96
2023-04-27T07:52:42.271Z,13.83
2023-04-27T07:55:13.488Z,13.82
2023-04-27T07:57:44.768Z,13.31
2023-04-27T08:00:17.602Z,13.47
2023-04-27T08:02:49.189Z,13.76
2023-04-27T08:05:21.366Z,13.78
2023-04-27T08:07:55.093Z,13.71
2023-04-27T08:10:27.099Z,13.64
2023-04-27T08:12:58.366Z,13.65
2023-04-27T08:15:30.008Z,13.48
2023-04-27T08:18:00.911Z,13.33
2023-04-27T08:20:32.288Z,13.29
2023-04-27T08:23:03.461Z,13.03
2023-04-27T08:25:34.866Z,13.05
2023-04-27T08:28:06.606Z,13.06
2023-04-27T08:30:37.966Z,13.03
2023-04-27T08:33:10.043Z,13.02
2023-04-27T08:35:40.478Z,13.13
2023-04-27T08:38:16.376Z,13.09
2023-04-27T08:40:48.428Z,12.83
2023-04-27T08:43:20.142Z,12.64
2023-04-27T08:45:58.063Z,12.78
2023-04-27T08:48:29.211Z,12.92
2023-04-27T08:51:06.217Z,12.79
2023-04-27T08:53:37.811Z,12.72
2023-04-27T08:56:09.562Z,12.83
2023-04-27T08:58:40.819Z,12.60
2023-04-27T09:01:12.239Z,12.48
2023-04-27T09:03:43.335Z,12.62
2023-04-27T09:06:15.847Z,12.73
2023-04-27T09:08:51.394Z,12.50
2023-04-27T09:11:37.405Z,12.41
2023-04-27T09:14:22.804Z,12.51
2023-04-27T09:17:01.562Z,12.30
2023-04-27T09:19:33.646Z,12.30
2023-04-27T09:22:15.257Z,12.45
2023-04-27T09:24:56.102Z,12.38
2023-04-27T09:27:27.552Z,12.29
2023-04-27T09:29:59.242Z,12.40
2023-04-27T09:32:30.226Z,12.15
2023-04-27T09:35:01.446Z,12.06
2023-04-27T09:37:34.017Z,12.12
2023-04-27T09:40:06.031Z,12.09
2023-04-27T09:42:37.462Z,12.07
2023-04-27T09:45:10.152Z,11.99
2023-04-27T09:47:41.944Z,11.86
2023-04-27T09:50:17.012Z,11.83
2023-04-27T09:52:49.347Z,11.99
2023-04-27T09:55:51.693Z,12.04
2023-04-27T09:58:40.753Z,11.80
2023-04-27T10:01:34.290Z,11.73
2023-04-27T10:04:46.187Z,11.77
2023-04-27T10:07:17.958Z,11.89
2023-04-27T10:09:55.860Z,11.66
2023-04-27T10:12:35.417Z,11.45
2023-04-27T10:15:16.817Z,11.45
2023-04-27T10:18:00.261Z,11.62
2023-04-27T10:20:38.181Z,11.69
2023-04-27T10:23:09.640Z,11.52
2023-04-27T10:25:42.801Z,11.40
2023-04-27T10:28:24.297Z,11.23
2023-04-27T10:30:56.465Z,11.12
2023-04-27T10:33:27.590Z,11.11
2023-04-27T10:36:00.643Z,11.02
2023-04-27T10:38:34.117Z,11.09
2023-04-27T10:41:08.930Z,11.23
2023-04-27T10:43:40.405Z,11.15
2023-04-27T10:46:16.811Z,11.32
2023-04-27T10:48:48.281Z,11.21
2023-04-27T10:51:19.644Z,11.10
2023-04-27T10:53:55.209Z,11.00
2023-04-27T10:56:46.448Z,11.39
2023-04-27T10:59:17.787Z,11.43
2023-04-27T11:01:52.912Z,11.29
2023-04-27T11:04:24.231Z,11.12
2023-04-27T11:06:56.419Z,11.22
2023-04-27T11:09:29.987Z,11.20
2023-04-27T11:12:01.014Z,11.03
2023-04-27T11:14:32.292Z,10.98
2023-04-27T11:17:04.041Z,10.92
2023-04-27T11:19:35.757Z,10.79
2023-04-27T11:22:08.473Z,10.83
2023-04-27T11:24:39.628Z,10.74
2023-04-27T11:27:11.361Z,10.61
2023-04-27T11:29:43.159Z,10.85
2023-04-27T11:32:24.821Z,11.00
2023-04-27T11:34:58.413Z,11.01
2023-04-27T11:37:31.328Z,10.91
2023-04-27T11:40:03.541Z,10.74
2023-04-27T11:42:35.680Z,10.87
2023-04-27T11:45:08.281Z,10.87
2023-04-27T11:47:40.697Z,10.64
2023-04-27T11:50:14.746Z,10.68
2023-04-27T11:52:51.386Z,10.52
2023-04-27T11:55:26.349Z,10.43
2023-04-27T11:58:01.306Z,10.49
2023-04-27T12:00:33.123Z,10.52
2023-04-27T12:03:06.011Z,10.23
2023-04-27T12:05:38.317Z,10.45
2023-04-27T12:08:09.796Z,10.47
2023-04-27T12:10:41.510Z,10.43
2023-04-27T12:13:13.887Z,10.58
2023-04-27T12:15:45.686Z,10.61
2023-04-27T12:18:17.021Z,10.28
2023-04-27T12:20:48.959Z,10.26
2023-04-27T12:23:20.243Z,10.10
2023-04-27T12:25:51.602Z,10.32
2023-04-27T12:28:23.323Z,10.14
2023-04-27T12:30:55.004Z,10.04
2023-04-27T12:33:27.978Z,10.06
2023-04-27T12:35:59.292Z,10.10
2023-04-27T12:38:30.682Z,10.02
2023-04-27T12:41:04.605Z,9.97
2023-04-27T12:43:37.873Z,9.88
2023-04-27T12:46:10.250Z,9.82
2023-04-27T12:48:41.817Z,9.83
2023-04-27T12:51:14.621Z,9.97
2023-04-27T12:53:45.925Z,9.95
2023-04-27T12:56:17.653Z,9.78
2023-04-27T12:58:48.859Z,9.65
2023-04-27T13:01:22.973Z,9.66
2023-04-27T13:03:55.786Z,9.56
2023-04-27T13:06:28.302Z,9.56
2023-04-27T13:09:00.237Z,9.54
2023-04-27T13:11:31.225Z,9.50
2023-04-27T13:14:03.394Z,9.36
2023-04-27T13:16:34.765Z,9.41
2023-04-27T13:19:06.334Z,9.36
2023-04-27T13:21:37.650Z,9.13
2023-04-27T13:24:09.313Z,9.32
2023-04-27T13:26:40.764Z,9.38
2023-04-27T13:29:12.456Z,9.16
2023-04-27T13:31:43.980Z,9.19
2023-04-27T13:34:16.373Z,9.12
2023-04-27T13:36:49.553Z,9.29
2023-04-27T13:39:22.812Z,9.28
2023-04-27T13:41:54.443Z,9.12
2023-04-27T13:44:27.271Z,9.11
2023-04-27T13:46:59.256Z,9.05
2023-04-27T13:49:30.468Z,9.04
2023-04-27T13:52:02.666Z,9.09
2023-04-27T13:54:33.895Z,9.06
2023-04-27T13:57:05.455Z,8.92
2023-04-27T13:59:36.833Z,9.15
2023-04-27T14:02:08.056Z,8.90
2023-04-27T14:04:39.195Z,8.92
2023-04-27T14:07:10.624Z,8.98
2023-04-27T14:09:41.721Z,9.01
2023-04-27T14:12:13.430Z,9.01
2023-04-27T14:14:44.692Z,9.10
2023-04-27T14:17:16.383Z,9.20
2023-04-27T14:19:47.874Z,9.06
2023-04-27T14:22:19.174Z,8.96
2023-04-27T14:24:50.747Z,8.95
2023-04-27T14:27:21.807Z,8.93
2023-04-27T14:29:52.962Z,8.91
2023-04-27T14:32:24.913Z,8.93
2023-04-27T14:34:56.666Z,8.86
2023-04-27T14:37:28.323Z,8.97
2023-04-27T14:39:59.804Z,8.88
2023-04-27T14:42:33.699Z,8.87
2023-04-27T14:45:05.222Z,8.82
2023-04-27T14:47:36.574Z,8.77
2023-04-27T14:50:08.839Z,8.86
2023-04-27T14:52:40.487Z,8.82
2023-04-27T14:55:15.058Z,8.81
2023-04-27T14:57:46.662Z,8.74
2023-04-27T15:00:18.454Z,8.71
2023-04-27T15:02:49.382Z,8.84
2023-04-27T15:05:21.056Z,8.70
2023-04-27T15:07:52.962Z,8.79
2023-04-27T15:10:24.337Z,8.73
2023-04-27T15:12:56.001Z,8.62
2023-04-27T15:15:27.446Z,8.62
2023-04-27T15:17:58.831Z,8.66
2023-04-27T15:20:30.367Z,8.70
2023-04-27T15:23:01.906Z,8.80
2023-04-27T15:25:33.322Z,8.80
2023-04-27T15:28:05.148Z,8.72
2023-04-27T15:30:39.578Z,8.67
2023-04-27T15:33:11.381Z,8.63
2023-04-27T15:35:43.649Z,8.74
2023-04-27T15:38:16.965Z,8.82
2023-04-27T15:40:48.314Z,8.82
2023-04-27T15:43:19.820Z,8.73
2023-04-27T15:45:51.435Z,8.75
2023-04-27T15:48:22.659Z,8.66
2023-04-27T15:50:54.615Z,8.63
2023-04-27T15:53:25.818Z,8.79
2023-04-27T15:55:56.998Z,8.77
2023-04-27T15:58:28.504Z,8.70
2023-04-27T16:01:01.607Z,8.77
2023-04-27T16:03:36.357Z,8.78
2023-04-27T16:06:08.319Z,8.68
2023-04-27T16:08:40.026Z,8.63
2023-04-27T16:11:11.442Z,8.55
2023-04-27T16:13:43.014Z,8.69
2023-04-27T16:16:14.157Z,8.65
2023-04-27T16:18:45.665Z,8.73
2023-04-27T16:21:16.962Z,8.55
2023-04-27T16:23:48.744Z,8.53
2023-04-27T16:26:20.058Z,8.64
2023-04-27T16:28:51.409Z,8.59
2023-04-27T16:31:23.117Z,8.53
2023-04-27T16:33:53.984Z,8.59
2023-04-27T16:36:26.432Z,8.70
2023-04-27T16:38:57.806Z,8.79
2023-04-27T16:41:29.350Z,8.59
2023-04-27T16:44:01.088Z,8.53
2023-04-27T16:46:32.460Z,8.45
2023-04-27T16:49:04.041Z,8.50
2023-04-27T16:51:35.722Z,8.53
2023-04-27T16:54:06.693Z,8.43
2023-04-27T16:56:38.714Z,8.46
2023-04-27T16:59:13.786Z,8.45
2023-04-27T17:01:45.743Z,8.45
2023-04-27T17:04:17.404Z,8.52
2023-04-27T17:06:49.995Z,8.45
2023-04-27T17:09:21.541Z,8.40
2023-04-27T17:11:53.006Z,8.33
2023-04-27T17:14:25.933Z,8.27
2023-04-27T17:16:56.844Z,8.36
2023-04-27T17:19:30.047Z,8.10
2023-04-27T17:22:01.522Z,8.07
2023-04-27T17:24:34.197Z,8.14
2023-04-27T17:27:06.160Z,8.33
2023-04-27T17:29:37.889Z,8.32
2023-04-27T17:32:10.660Z,8.25
2023-04-27T17:34:43.085Z,8.28
2023-04-27T17:37:16.277Z,8.28
2023-04-27T17:39:48.501Z,8.16
2023-04-27T17:42:20.316Z,8.38
2023-04-27T17:44:51.800Z,8.49
2023-04-27T17:47:26.697Z,8.57
2023-04-27T17:49:58.280Z,8.65
2023-04-27T17:52:29.506Z,8.60
2023-04-27T17:55:01.123Z,8.54
2023-04-27T17:57:35.142Z,8.51
2023-04-27T18:00:07.882Z,8.43
2023-04-27T18:02:40.765Z,8.44
2023-04-27T18:05:12.604Z,8.36
2023-04-27T18:07:43.461Z,8.39
2023-04-27T18:10:15.161Z,8.45
2023-04-27T18:12:46.702Z,8.58
2023-04-27T18:15:18.118Z,8.50
2023-04-27T18:17:50.368Z,8.38
2023-04-27T18:20:23.410Z,8.36
2023-04-27T18:22:54.919Z,8.27
2023-04-27T18:25:27.128Z,8.29
2023-04-27T18:27:58.594Z,8.39
2023-04-27T18:30:30.383Z,8.31
2023-04-27T18:33:02.236Z,8.45
2023-04-27T18:35:33.601Z,8.46
2023-04-27T18:38:05.801Z,8.34
2023-04-27T18:40:37.840Z,8.35
2023-04-27T18:43:10.284Z,8.36
2023-04-27T18:45:41.518Z,8.53
2023-04-27T18:48:13.021Z,8.45
2023-04-27T18:50:44.372Z,8.45
2023-04-27T18:53:16.056Z,8.24
2023-04-27T18:55:47.245Z,8.20
2023-04-27T18:58:18.660Z,8.38
2023-04-27T19:00:50.320Z,8.33
2023-04-27T19:03:21.952Z,8.38
2023-04-27T19:05:53.933Z,8.33
2023-04-27T19:08:25.407Z,8.24
2023-04-27T19:10:57.873Z,8.41
2023-04-27T19:13:30.013Z,8.15
2023-04-27T19:16:02.118Z,8.07
2023-04-27T19:18:33.793Z,8.14
2023-04-27T19:21:05.302Z,8.23
2023-04-27T19:23:37.215Z,8.29
2023-04-27T19:26:13.725Z,8.44
2023-04-27T19:28:45.685Z,8.45
2023-04-27T19:31:17.083Z,8.52
2023-04-27T19:36:26.304Z,9.84
2023-04-27T19:38:57.626Z,9.53
2023-04-27T19:41:29.110Z,9.46
2023-04-27T19:44:00.178Z,9.49
2023-04-27T19:46:32.549Z,9.31
2023-04-27T19:49:03.642Z,9.19
2023-04-27T19:51:35.587Z,9.22
2023-04-27T19:54:06.725Z,9.28
2023-04-27T19:56:37.839Z,9.58
2023-04-27T19:59:09.253Z,9.71
2023-04-27T20:01:41.320Z,9.66
2023-04-27T20:04:13.355Z,9.76
2023-04-27T20:06:44.850Z,10.02
2023-04-27T20:09:16.512Z,10.17
2023-04-27T20:11:48.319Z,10.25
2023-04-27T20:14:19.797Z,10.37
2023-04-27T20:16:52.478Z,10.62
2023-04-27T20:19:24.531Z,11.11
2023-04-27T20:21:55.458Z,11.67
2023-04-27T20:24:26.533Z,12.06
2023-04-27T20:26:58.127Z,11.82
2023-04-27T20:29:29.655Z,11.62
2023-04-27T20:32:01.068Z,11.90
2023-04-27T20:34:33.095Z,12.11
2023-04-27T20:37:05.929Z,11.78
2023-04-27T20:39:37.939Z,11.96
2023-04-27T20:42:09.080Z,12.10
2023-04-27T20:44:40.877Z,12.58
2023-04-27T20:47:12.437Z,12.84
2023-04-27T20:49:44.185Z,12.86
2023-04-27T20:52:15.500Z,13.17
2023-04-27T20:54:46.824Z,13.43
2023-04-27T20:57:17.860Z,13.95
2023-04-27T20:59:49.404Z,13.97
2023-04-27T21:02:21.747Z,14.39
2023-04-27T21:04:53.849Z,14.51
2023-04-27T21:07:25.186Z,14.33
2023-04-27T21:09:56.251Z,14.58
2023-04-27T21:12:28.306Z,14.85
2023-04-27T21:15:00.164Z,14.77
2023-04-27T21:17:35.528Z,14.84
2023-04-27T21:20:06.950Z,15.04
2023-04-27T21:22:38.445Z,14.63
2023-04-27T21:25:10.076Z,15.32
2023-04-27T21:27:42.204Z,16.03
2023-04-27T21:30:13.824Z,15.95
2023-04-27T21:32:45.826Z,16.00
2023-04-27T21:35:16.701Z,16.51
2023-04-27T21:37:50.246Z,16.27
2023-04-27T21:40:22.750Z,16.02
2023-04-27T21:42:57.369Z,16.53
2023-04-27T21:45:28.666Z,17.06
2023-04-27T21:48:00.237Z,17.04
2023-04-27T21:50:32.973Z,17.26
2023-04-27T21:53:04.359Z,16.79
2023-04-27T21:55:35.601Z,17.33
2023-04-27T21:58:07.529Z,17.48
2023-04-27T22:00:39.094Z,16.64
2023-04-27T22:03:10.432Z,17.17
2023-04-27T22:05:42.247Z,17.57
2023-04-27T22:08:13.736Z,17.47
2023-04-27T22:10:45.132Z,17.55
2023-04-27T22:13:19.259Z,17.84
2023-04-27T22:15:51.001Z,18.65
2023-04-27T22:18:22.494Z,18.99
2023-04-27T22:20:55.876Z,18.16
2023-04-27T22:23:27.941Z,18.45
2023-04-27T22:26:00.342Z,18.13
2023-04-27T22:28:32.495Z,18.24
2023-04-27T22:31:05.150Z,18.26
2023-04-27T22:33:36.417Z,18.74
2023-04-27T22:36:08.098Z,18.87
2023-04-27T22:38:38.764Z,19.07
2023-04-27T22:41:10.960Z,19.03
2023-04-27T22:43:42.710Z,18.90
2023-04-27T22:46:14.190Z,18.34
2023-04-27T22:48:46.520Z,18.26
2023-04-27T22:51:18.515Z,18.52
2023-04-27T22:53:50.661Z,19.17
2023-04-27T22:56:22.746Z,19.27
2023-04-27T22:58:53.506Z,19.60
2023-04-27T23:01:25.106Z,19.10
2023-04-27T23:03:56.413Z,18.91
2023-04-27T23:06:29.769Z,19.75
2023-04-27T23:09:01.195Z,19.13
2023-04-27T23:11:32.564Z,18.61
2023-04-27T23:14:04.860Z,19.26
2023-04-27T23:16:37.206Z,20.46
2023-04-27T23:19:08.784Z,18.92
2023-04-27T23:21:40.472Z,19.00
2023-04-27T23:24:11.945Z,19.27
2023-04-27T23:26:43.227Z,18.97
2023-04-27T23:29:14.579Z,19.54
2023-04-27T23:31:45.986Z,19.88
2023-04-27T23:34:18.146Z,20.38
2023-04-27T23:36:49.697Z,19.96
2023-04-27T23:39:21.242Z,20.26
2023-04-27T23:41:52.352Z,19.73
2023-04-27T23:44:23.555Z,20.04
2023-04-27T23:46:54.919Z,20.75
2023-04-27T23:49:26.198Z,20.19
2023-04-27T23:51:58.084Z,20.24
2023-04-27T23:54:32.900Z,20.03
2023-04-27T23:57:05.620Z,21.00
2023-04-27T23:59:39.915Z,21.12
